Flight Track Log - Related Links

Times and Time Zones

All times are in EDT time to prevent confusion due to time zone crossing. See the DAL1515 flight status page for this flight to view local times or setup timezone preferences in your user account.

Time Position Orientation Groundspeed Altitude Reporting Facility
EDT Latitude Longitude Course Direction KTS MPH feet Rate Location/Type
Mon 08:34:57 PM 33.6536 -84.4881 North 448 516 2,700  Level Atlanta Center
Mon 08:35:57 PM 33.6825 -84.5606 296° West 366 421 4,600 2,250 Climbing Atlanta Center
Mon 08:36:57 PM 33.7514 -84.5836 344° North 250 288 7,200 2,600 Climbing Atlanta Center
Mon 08:37:00 PM 33.9215 -84.2548 320° Northwest  Level FlightAware Approximate
Mon 08:37:57 PM 33.8347 -84.5739 North 307 353 9,800  Level Atlanta Center
Mon 08:38:00 PM 34.0376 -84.2667 North  Level FlightAware Approximate
Mon 08:38:57 PM 33.9331 -84.5544 North 314 361 11,700  Level Atlanta Center
Mon 08:39:00 PM 34.1572 -84.2667 North  Level FlightAware Approximate
Mon 08:39:57 PM 34.0311 -84.5325 11° North 335 386 13,900  Level Atlanta Center
Mon 08:40:00 PM 34.2768 -84.2667 North  Level FlightAware Approximate
Mon 08:40:57 PM 34.1064 -84.5081 15° North 333 383 16,100  Level Atlanta Center
Mon 08:41:57 PM 34.2256 -84.4758 13° North 360 414 18,200 2,100 Climbing Atlanta Center
Mon 08:42:57 PM 34.3175 -84.4261 24° Northeast 361 415 20,300 1,750 Climbing Atlanta Center
Mon 08:43:57 PM 34.4136 -84.3761 23° Northeast 361 415 21,700 1,150 Climbing Atlanta Center
Mon 08:44:57 PM 34.5036 -84.3311 22° Northeast 372 428 22,600 1,300 Climbing Atlanta Center
Mon 08:45:57 PM 34.6058 -84.2861 20° North 389 448 24,300 1,100 Climbing Atlanta Center
Mon 08:46:57 PM 34.7208 -84.2486 15° North 395 455 24,800 500 Climbing Atlanta Center
Mon 08:47:57 PM 34.8378 -84.2133 14° North 424 488 25,300 950 Climbing Atlanta Center
Mon 08:48:57 PM 34.9714 -84.1756 13° North 432 497 26,700 1,400 Climbing Atlanta Center
Mon 08:49:57 PM 35.0964 -84.1403 13° North 443 510 28,100 1,600 Climbing Atlanta Center
Mon 08:50:57 PM 35.2133 -84.1050 14° North 443 510 29,900 1,350 Climbing Atlanta Center
Mon 08:51:57 PM 35.3303 -84.0692 14° North 437 503 30,800 900 Climbing Atlanta Center
Mon 08:52:57 PM 35.4492 -84.0336 14° North 432 497 31,700 600 Climbing Atlanta Center
Mon 08:53:57 PM 35.5681 -83.9978 14° North 432 497 32,000 500 Climbing Atlanta Center
Mon 08:54:57 PM 35.6806 -83.9467 20° North 432 497 32,700 500 Climbing Atlanta Center
Mon 08:55:57 PM 35.7892 -83.8878 24° Northeast 427 491 33,000 150 Climbing Atlanta Center
Mon 08:56:57 PM 35.8975 -83.8311 23° Northeast 421 484 33,000  Level Atlanta Center
Mon 08:57:57 PM 36.0058 -83.7744 23° Northeast 415 478 33,000  Level Atlanta Center
Mon 08:58:57 PM 36.1142 -83.7150 24° Northeast 415 478 33,000  Level Atlanta Center
Mon 08:59:44 PM 36.2014 -83.6642 25° Northeast 428 493 33,000  Level Indianapolis Center
Mon 09:00:46 PM 36.3092 -83.6058 24° Northeast 425 489 33,000  Level Indianapolis Center
Mon 09:01:48 PM 36.4192 -83.5456 24° Northeast 430 495 33,000  Level Indianapolis Center
Mon 09:02:49 PM 36.5375 -83.4808 24° Northeast 433 498 33,000  Level Indianapolis Center
Mon 09:03:51 PM 36.6461 -83.4161 26° Northeast 431 496 33,000  Level Indianapolis Center
Mon 09:04:52 PM 36.7422 -83.3214 38° Northeast 436 502 33,000  Level Indianapolis Center
Mon 09:05:54 PM 36.8325 -83.2194 42° Northeast 435 501 33,000  Level Indianapolis Center
Mon 09:06:56 PM 36.9225 -83.1150 43° Northeast 437 503 33,000  Level Indianapolis Center
Mon 09:07:57 PM 37.0158 -83.0092 42° Northeast 440 506 33,000  Level Indianapolis Center
Mon 09:08:59 PM 37.1064 -82.8997 44° Northeast 444 511 33,000  Level Indianapolis Center
Mon 09:10:00 PM 37.1958 -82.7944 43° Northeast 437 503 33,000  Level Indianapolis Center
Mon 09:11:02 PM 37.2847 -82.6900 43° Northeast 438 504 33,000  Level Indianapolis Center
Mon 09:12:04 PM 37.3750 -82.5856 43° Northeast 440 506 33,000  Level Indianapolis Center
Mon 09:13:05 PM 37.4797 -82.4631 43° Northeast 439 505 33,000  Level Indianapolis Center
Mon 09:14:07 PM 37.5681 -82.3575 43° Northeast 436 502 33,000  Level Indianapolis Center
Mon 09:15:09 PM 37.6561 -82.2489 44° Northeast 440 506 33,000  Level Indianapolis Center
Mon 09:16:10 PM 37.7439 -82.1414 44° Northeast 439 505 33,000  Level Indianapolis Center
Mon 09:17:12 PM 37.8322 -82.0336 44° Northeast 441 507 33,000  Level Indianapolis Center
Mon 09:18:14 PM 37.9206 -81.9242 44° Northeast 441 507 33,000  Level Indianapolis Center
Mon 09:19:15 PM 38.0150 -81.8275 39° Northeast 440 506 33,000  Level Indianapolis Center
Mon 09:20:17 PM 38.1150 -81.7417 45° Northeast 436 502 33,000  Level Indianapolis Center
Mon 09:21:00 PM 38.1529 -81.6536 45° Northeast  Level FlightAware Approximate
Mon 09:21:19 PM 38.2144 -81.6553 34° Northeast 435 501 33,000  Level Indianapolis Center
Mon 09:22:20 PM 38.3311 -81.5447 37° Northeast 435 501 33,000  Level Indianapolis Center
Mon 09:23:22 PM 38.4139 -81.4328 47° Northeast 437 503 33,000  Level Indianapolis Center
Mon 09:24:24 PM 38.4972 -81.3231 46° Northeast 437 503 33,000  Level Indianapolis Center
Mon 09:25:25 PM 38.5814 -81.2142 45° Northeast 437 503 33,000  Level Indianapolis Center
Mon 09:26:27 PM 38.6653 -81.1039 46° Northeast 437 503 33,000  Level Indianapolis Center
Mon 09:27:28 PM 38.7497 -80.9925 46° Northeast 439 505 33,000  Level Indianapolis Center
Mon 09:28:30 PM 38.8522 -80.8586 45° Northeast 437 503 33,000  Level Indianapolis Center
Mon 09:29:32 PM 38.9361 -80.7478 46° Northeast 440 506 33,000  Level Indianapolis Center
Mon 09:30:33 PM 39.0194 -80.6356 46° Northeast 434 499 33,000  Level Indianapolis Center
Mon 09:31:35 PM 39.1042 -80.5236 46° Northeast 436 502 33,000  Level Indianapolis Center
Mon 09:32:36 PM 39.1858 -80.4114 47° Northeast 432 497 33,000  Level Indianapolis Center
Mon 09:33:38 PM 39.2694 -80.2997 46° Northeast 432 497 33,000  Level Indianapolis Center
Mon 09:34:40 PM 39.3528 -80.1878 46° Northeast 434 499 33,000  Level Indianapolis Center
Mon 09:35:24 PM 39.4219 -80.0994 45° Northeast 431 496 33,000  Level Cleveland Center
Mon 09:36:24 PM 39.5050 -79.9858 47° Northeast 431 496 33,000  Level Cleveland Center
Mon 09:37:24 PM 39.5875 -79.8719 47° Northeast 431 496 33,000  Level Cleveland Center
Mon 09:38:24 PM 39.6744 -79.7578 45° Northeast 431 496 33,000  Level Cleveland Center
Mon 09:39:24 PM 39.7589 -79.6433 46° Northeast 431 496 33,000  Level Cleveland Center
Mon 09:40:24 PM 39.8414 -79.5286 47° Northeast 431 496 33,000  Level Cleveland Center
Mon 09:41:24 PM 39.9194 -79.4031 51° Northeast 431 496 33,000  Level Cleveland Center
Mon 09:42:24 PM 39.9908 -79.2797 53° Northeast 431 496 33,000  Level Cleveland Center
Mon 09:43:24 PM 40.0642 -79.1372 56° Northeast 431 496 33,000  Level Cleveland Center
Mon 09:44:24 PM 40.1356 -79.0108 54° Northeast 431 496 33,000  Level Cleveland Center
Mon 09:45:24 PM 40.2067 -78.8814 54° Northeast 431 496 33,000  Level Cleveland Center
Mon 09:46:24 PM 40.2756 -78.7517 55° Northeast 431 496 33,000  Level Cleveland Center
Mon 09:47:24 PM 40.3403 -78.6356 54° Northeast 436 502 33,000  Level Cleveland Center
Mon 09:49:53 PM 40.5083 -78.3139 55° Northeast 447 514 33,000  Level New York Center
Mon 09:50:54 PM 40.5792 -78.1822 55° Northeast 442 509 33,000  Level New York Center
Mon 09:51:53 PM 40.6550 -78.0372 55° Northeast 437 503 33,000  Level New York Center
Mon 09:52:53 PM 40.7233 -77.9075 55° Northeast 437 503 33,000  Level New York Center
Mon 09:53:53 PM 40.7994 -77.7864 50° Northeast 437 503 33,000  Level New York Center
Mon 09:54:51 PM 40.8889 -77.6803 42° Northeast 431 496 33,000 -202 Level New York Center
Mon 09:55:52 PM 40.9764 -77.5736 43° Northeast 425 489 32,600 -843 Descending New York Center
Mon 09:56:52 PM 41.0636 -77.4697 42° Northeast 425 489 31,300 -1,109 Descending New York Center
Mon 09:57:51 PM 41.1353 -77.3831 42° Northeast 425 489 30,400 -655 Descending New York Center
Mon 09:58:51 PM 41.2286 -77.2733 41° Northeast 419 482 30,000 -694 Descending New York Center
Mon 09:59:52 PM 41.3178 -77.1686 41° Northeast 419 482 29,000 -496 Descending New York Center
Mon 10:00:52 PM 41.4047 -77.0636 42° Northeast 419 482 29,000  Level New York Center
Mon 10:01:51 PM 41.4917 -76.9525 44° Northeast 419 482 29,000 -50 Level New York Center
Mon 10:02:51 PM 41.5806 -76.8469 42° Northeast 419 482 28,900 -843 Descending New York Center
Mon 10:03:52 PM 41.6672 -76.7383 43° Northeast 419 482 27,300 -934 Descending New York Center
Mon 10:04:53 PM 41.7492 -76.6428 41° Northeast 419 482 27,000 -706 Descending New York Center
Mon 10:05:51 PM 41.8467 -76.5206 43° Northeast 425 489 25,900 -807 Descending New York Center
Mon 10:06:52 PM 41.9372 -76.4139 41° Northeast 431 496 25,400 -683 Descending New York Center
Mon 10:07:54 PM 42.0322 -76.2964 43° Northeast 426 490 24,500 -535 Descending New York Center
Mon 10:09:29 PM 42.1719 -76.1158 44° Northeast 416 479 24,000 -194 Descending Boston Center
Mon 10:10:29 PM 42.2225 -75.9672 65° Northeast 416 479 24,000  Level Boston Center
Mon 10:11:29 PM 42.2731 -75.8186 65° Northeast 421 484 24,000  Level Boston Center
Mon 10:12:29 PM 42.3164 -75.6889 66° East 416 479 24,000 -50 Level Boston Center
Mon 10:13:29 PM 42.3664 -75.5453 65° Northeast 416 479 23,900 -450 Descending Boston Center
Mon 10:14:29 PM 42.4161 -75.3989 65° Northeast 416 479 23,100 -950 Descending Boston Center
Mon 10:15:29 PM 42.4633 -75.2575 66° East 411 473 22,000 -1,300 Descending Boston Center
Mon 10:16:29 PM 42.4961 -75.1069 74° East 411 473 20,500 -2,036 Descending Boston Center
Mon 10:17:21 PM 42.5183 -74.9614 78° East 417 480 18,200 -2,436 Descending Boston Center
Mon 10:18:10 PM 42.5436 -74.8553 72° East 395 455 16,400 -2,172 Descending Boston Center
Mon 10:19:17 PM 42.5469 -74.6892 88° East 377 434 14,000 -2,079 Descending Boston Center
Mon 10:20:17 PM 42.5600 -74.5542 82° East 363 418 12,000 -1,565 Descending Boston Center
Mon 10:21:12 PM 42.5578 -74.4386 91° East 328 377 11,000 -1,148 Descending Boston Center
Mon 10:22:12 PM 42.5556 -74.3258 91° East 294 338 9,800 -1,357 Descending Boston Center
Mon 10:23:07 PM 42.5553 -74.2242 90° East 288 331 8,400 -1,500 Descending Boston Center
Mon 10:24:08 PM 42.5569 -74.1172 89° East 284 327 6,900 -1,488 Descending Boston Center
Mon 10:25:08 PM 42.5561 -74.0158 91° East 275 316 5,400 -1,736 Descending Boston Center
Mon 10:26:09 PM 42.5556 -73.9142 90° East 269 310 3,400 -1,967 Descending Boston Center

Login

Don't have an account? Register now (free) for customized features, flight alerts, and more!